createdAt,value
2022-12-06T00:00:18.275Z,6.00
2022-12-06T00:01:13.411Z,6.13
2022-12-06T00:01:56.472Z,6.60
2022-12-06T00:02:38.377Z,7.00
2022-12-06T00:03:20.146Z,6.57
2022-12-06T00:04:05.321Z,6.70
2022-12-06T00:04:47.036Z,6.68
2022-12-06T00:05:28.744Z,7.30
2022-12-06T00:06:19.140Z,7.30
2022-12-06T00:07:00.964Z,6.95
2022-12-06T00:07:42.804Z,7.95
2022-12-06T00:08:24.473Z,6.97
2022-12-06T00:09:06.655Z,7.40
2022-12-06T00:09:48.503Z,7.82
2022-12-06T00:10:30.217Z,8.00
2022-12-06T00:11:15.078Z,7.82
2022-12-06T00:11:58.070Z,7.85
2022-12-06T00:12:39.788Z,7.85
2022-12-06T00:13:21.735Z,8.07
2022-12-06T00:14:07.945Z,7.65
2022-12-06T00:14:49.601Z,8.68
2022-12-06T00:15:35.460Z,8.60
2022-12-06T00:16:17.436Z,9.07
2022-12-06T00:16:59.318Z,9.27
2022-12-06T00:17:43.116Z,10.20
2022-12-06T00:18:25.103Z,11.02
2022-12-06T00:19:06.874Z,10.07
2022-12-06T00:19:48.621Z,9.07
2022-12-06T00:20:30.388Z,9.95
2022-12-06T00:21:14.982Z,11.10
2022-12-06T00:21:56.649Z,10.32
2022-12-06T00:22:44.347Z,10.20
2022-12-06T00:23:31.389Z,9.98
2022-12-06T00:24:15.644Z,8.35
2022-12-06T00:24:57.340Z,8.85
2022-12-06T00:25:39.023Z,7.70
2022-12-06T00:26:21.744Z,8.27
2022-12-06T00:27:03.476Z,8.52
2022-12-06T00:27:45.575Z,9.25
2022-12-06T00:28:27.330Z,9.13
2022-12-06T00:29:13.028Z,9.90
2022-12-06T00:29:54.828Z,9.35
2022-12-06T00:30:36.548Z,9.30
2022-12-06T00:31:20.153Z,8.73
2022-12-06T00:32:01.924Z,9.20
2022-12-06T00:32:43.866Z,8.68
2022-12-06T00:33:26.305Z,8.93
2022-12-06T00:34:08.105Z,8.02
2022-12-06T00:34:49.799Z,9.25
2022-12-06T00:35:31.540Z,9.27
2022-12-06T00:36:16.540Z,9.65
2022-12-06T00:36:58.253Z,9.60
2022-12-06T00:37:40.056Z,9.63
2022-12-06T00:38:21.816Z,9.07
2022-12-06T00:39:11.722Z,8.88
2022-12-06T00:39:53.418Z,10.00
2022-12-06T00:40:35.157Z,8.82
2022-12-06T00:41:19.674Z,9.57
2022-12-06T00:42:01.394Z,9.35
2022-12-06T00:42:43.105Z,8.30
2022-12-06T00:43:24.877Z,8.25
2022-12-06T00:44:07.223Z,8.75
2022-12-06T00:44:48.917Z,8.32
2022-12-06T00:45:30.871Z,8.98
2022-12-06T00:46:17.202Z,9.23
2022-12-06T00:46:58.935Z,8.93
2022-12-06T00:47:40.600Z,8.55
2022-12-06T00:48:22.659Z,9.43
2022-12-06T00:49:06.447Z,9.23
2022-12-06T00:49:48.263Z,9.15
2022-12-06T00:50:29.995Z,8.68
2022-12-06T00:51:12.603Z,8.77
2022-12-06T00:51:54.357Z,8.30
2022-12-06T00:52:36.126Z,8.35
2022-12-06T00:53:18.317Z,8.63
2022-12-06T00:54:00.112Z,7.93
2022-12-06T00:54:41.805Z,8.68
2022-12-06T00:55:23.558Z,7.82
2022-12-06T00:56:05.735Z,6.97
2022-12-06T00:56:47.461Z,8.57
2022-12-06T00:57:29.097Z,7.72
2022-12-06T00:58:11.753Z,7.82
2022-12-06T00:58:53.825Z,8.10
2022-12-06T00:59:35.543Z,7.18
2022-12-06T01:00:17.561Z,7.50
2022-12-06T01:01:17.300Z,7.90
2022-12-06T01:01:59.036Z,7.60
2022-12-06T01:02:40.733Z,7.45
2022-12-06T01:03:22.975Z,7.55
2022-12-06T01:04:06.560Z,7.80
2022-12-06T01:04:48.264Z,8.15
2022-12-06T01:05:30.382Z,7.93
2022-12-06T01:06:15.200Z,6.85
2022-12-06T01:06:56.935Z,8.10
2022-12-06T01:07:38.691Z,7.93
2022-12-06T01:08:20.531Z,7.68
2022-12-06T01:09:06.276Z,8.00
2022-12-06T01:09:48.031Z,8.65
2022-12-06T01:10:29.748Z,8.35
2022-12-06T01:11:14.078Z,8.38
2022-12-06T01:11:55.784Z,8.15
2022-12-06T01:12:37.654Z,8.93
2022-12-06T01:13:19.529Z,8.48
2022-12-06T01:14:01.789Z,8.30
2022-12-06T01:14:43.522Z,8.45
2022-12-06T01:15:25.318Z,8.02
2022-12-06T01:16:12.397Z,7.75
2022-12-06T01:16:54.301Z,8.75
2022-12-06T01:17:36.799Z,8.30
2022-12-06T01:18:18.545Z,8.13
2022-12-06T01:19:02.703Z,7.40
2022-12-06T01:19:44.537Z,8.00
2022-12-06T01:20:26.476Z,8.00
2022-12-06T01:21:10.862Z,8.07
2022-12-06T01:21:52.573Z,7.47
2022-12-06T01:22:34.593Z,7.10
2022-12-06T01:23:16.297Z,7.07
2022-12-06T01:23:58.486Z,6.57
2022-12-06T01:24:40.148Z,7.03
2022-12-06T01:25:25.863Z,6.78
2022-12-06T01:26:14.239Z,6.63
2022-12-06T01:26:56.038Z,6.97
2022-12-06T01:27:37.842Z,7.03
2022-12-06T01:28:19.581Z,6.30
2022-12-06T01:29:02.001Z,6.95
2022-12-06T01:29:43.727Z,7.07
2022-12-06T01:30:26.139Z,6.72
2022-12-06T01:31:08.333Z,7.00
2022-12-06T01:31:50.010Z,6.97
2022-12-06T01:32:31.742Z,6.72
2022-12-06T01:33:13.412Z,6.63
2022-12-06T01:33:55.282Z,6.72
2022-12-06T01:34:37.075Z,7.20
2022-12-06T01:35:18.828Z,6.15
2022-12-06T01:36:00.569Z,5.95
2022-12-06T01:36:42.512Z,6.90
2022-12-06T01:37:24.329Z,5.80
2022-12-06T01:38:06.338Z,6.00
2022-12-06T01:38:52.920Z,5.13
2022-12-06T01:39:34.522Z,5.20
2022-12-06T01:40:16.302Z,5.32
2022-12-06T01:40:57.973Z,5.10
2022-12-06T01:41:40.126Z,5.57
2022-12-06T01:42:21.811Z,5.30
2022-12-06T01:43:03.512Z,5.35
2022-12-06T01:43:45.415Z,5.30
2022-12-06T01:44:46.845Z,5.40
2022-12-06T01:45:28.481Z,5.18
2022-12-06T01:46:26.989Z,5.20
2022-12-06T01:47:28.594Z,5.13
2022-12-06T01:48:10.304Z,5.10
2022-12-06T01:48:58.631Z,5.88
2022-12-06T01:49:43.794Z,5.70
2022-12-06T01:50:32.587Z,4.95
2022-12-06T01:51:16.126Z,5.25
2022-12-06T01:52:05.459Z,5.30
2022-12-06T01:53:01.787Z,7.70
2022-12-06T01:53:47.249Z,6.43
2022-12-06T01:54:29.821Z,6.28
2022-12-06T01:55:13.802Z,6.05
2022-12-06T01:55:55.624Z,5.68
2022-12-06T01:56:38.705Z,5.40
2022-12-06T01:57:20.978Z,5.40
2022-12-06T01:58:10.893Z,5.53
2022-12-06T01:58:57.040Z,5.30
2022-12-06T01:59:39.607Z,5.32
2022-12-06T02:00:21.404Z,5.45
2022-12-06T02:01:03.203Z,5.88
2022-12-06T02:01:46.183Z,5.30
2022-12-06T02:02:28.337Z,5.72
2022-12-06T02:03:17.428Z,5.45
2022-12-06T02:04:01.452Z,6.03
2022-12-06T02:04:44.417Z,5.53
2022-12-06T02:05:26.250Z,5.53
2022-12-06T02:06:09.064Z,5.68
2022-12-06T02:06:52.862Z,5.18
2022-12-06T02:07:35.137Z,4.85
2022-12-06T02:08:19.368Z,5.38
2022-12-06T02:09:05.707Z,5.18
2022-12-06T02:09:49.047Z,5.72
2022-12-06T02:10:31.372Z,5.47
2022-12-06T02:11:13.096Z,5.20
2022-12-06T02:11:54.874Z,5.35
2022-12-06T02:12:36.616Z,4.95
2022-12-06T02:13:18.556Z,4.97
2022-12-06T02:14:01.161Z,5.35
2022-12-06T02:14:47.519Z,5.30
2022-12-06T02:15:52.329Z,6.00
2022-12-06T02:16:50.334Z,5.75
2022-12-06T02:18:00.759Z,5.05
2022-12-06T02:18:51.316Z,5.10
2022-12-06T02:20:24.115Z,5.18
2022-12-06T02:21:43.797Z,5.63
2022-12-06T02:23:02.696Z,5.15
2022-12-06T02:24:03.041Z,4.88
2022-12-06T02:25:08.972Z,4.25
2022-12-06T02:26:11.613Z,4.78
2022-12-06T02:27:18.817Z,5.25
2022-12-06T02:28:38.237Z,5.10
2022-12-06T02:29:48.636Z,4.45
2022-12-06T02:30:52.754Z,4.80
2022-12-06T02:31:42.661Z,4.25
2022-12-06T02:32:39.013Z,4.18
2022-12-06T02:33:32.953Z,4.38
2022-12-06T02:34:21.338Z,4.25
2022-12-06T02:35:11.795Z,4.47
2022-12-06T02:36:00.975Z,4.55
2022-12-06T02:36:53.814Z,4.43
2022-12-06T02:37:48.768Z,4.28
2022-12-06T02:38:38.073Z,4.22
2022-12-06T02:39:42.492Z,4.50
2022-12-06T02:40:31.094Z,4.30
2022-12-06T02:41:21.509Z,4.72
2022-12-06T02:42:11.675Z,4.38
2022-12-06T02:43:04.910Z,4.18
2022-12-06T02:43:51.612Z,5.05
2022-12-06T02:44:57.412Z,4.88
2022-12-06T02:45:44.420Z,4.97
2022-12-06T02:46:30.852Z,4.63
2022-12-06T02:47:16.359Z,5.05
2022-12-06T02:48:02.471Z,5.35
2022-12-06T02:48:46.747Z,4.85
2022-12-06T02:49:33.397Z,4.60
2022-12-06T02:50:22.618Z,4.72
2022-12-06T02:51:11.838Z,4.60
2022-12-06T02:51:54.849Z,4.57
2022-12-06T02:52:41.476Z,4.95
2022-12-06T02:53:26.016Z,4.70
2022-12-06T02:54:10.281Z,4.53
2022-12-06T02:54:56.993Z,4.70
2022-12-06T02:55:39.930Z,5.05
2022-12-06T02:56:23.740Z,4.25
2022-12-06T02:57:05.509Z,4.38
2022-12-06T02:57:50.378Z,4.78
2022-12-06T02:58:36.890Z,4.90
2022-12-06T02:59:18.561Z,4.63
2022-12-06T03:00:00.905Z,4.30
2022-12-06T03:00:45.417Z,4.80
2022-12-06T03:01:30.849Z,4.55
2022-12-06T03:02:12.742Z,4.63
2022-12-06T03:03:05.757Z,5.10
2022-12-06T03:04:00.166Z,4.72
2022-12-06T03:04:53.879Z,4.53
2022-12-06T03:06:03.572Z,4.93
2022-12-06T03:07:15.468Z,4.53
2022-12-06T03:08:01.295Z,4.60
2022-12-06T03:08:53.115Z,4.07
2022-12-06T03:10:14.814Z,4.60
2022-12-06T03:11:02.267Z,5.05
2022-12-06T03:11:59.574Z,4.97
2022-12-06T03:13:14.724Z,4.20
2022-12-06T03:14:14.853Z,4.25
2022-12-06T03:15:45.638Z,4.90
2022-12-06T03:16:32.401Z,4.63
2022-12-06T03:17:22.930Z,4.43
2022-12-06T03:18:13.247Z,4.18
2022-12-06T03:19:03.518Z,3.88
2022-12-06T03:19:51.057Z,4.70
2022-12-06T03:21:07.140Z,4.78
2022-12-06T03:22:06.673Z,4.20
2022-12-06T03:22:58.210Z,4.28
2022-12-06T03:23:44.509Z,4.70
2022-12-06T03:24:28.438Z,4.70
2022-12-06T03:25:10.934Z,4.78
2022-12-06T03:25:58.453Z,5.95
2022-12-06T03:26:43.695Z,5.93
2022-12-06T03:27:27.351Z,5.45
2022-12-06T03:28:13.383Z,4.60
2022-12-06T03:28:58.007Z,4.25
2022-12-06T03:29:43.398Z,4.25
2022-12-06T03:30:25.115Z,4.47
2022-12-06T03:31:11.394Z,4.93
2022-12-06T03:31:55.328Z,4.30
2022-12-06T03:32:40.597Z,4.45
2022-12-06T03:33:25.537Z,4.20
2022-12-06T03:34:14.928Z,4.57
2022-12-06T03:35:02.752Z,4.97
2022-12-06T03:35:46.314Z,4.30
2022-12-06T03:36:29.927Z,4.75
2022-12-06T03:37:17.573Z,4.25
2022-12-06T03:38:07.018Z,4.85
2022-12-06T03:38:55.260Z,4.35
2022-12-06T03:39:47.616Z,4.57
2022-12-06T03:40:33.280Z,4.15
2022-12-06T03:41:19.269Z,4.15
2022-12-06T03:42:02.987Z,4.57
2022-12-06T03:42:45.063Z,4.10
2022-12-06T03:43:27.049Z,3.95
2022-12-06T03:44:08.912Z,4.20
2022-12-06T03:44:50.628Z,3.97
2022-12-06T03:45:44.322Z,4.82
2022-12-06T03:46:36.541Z,4.30
2022-12-06T03:47:25.838Z,4.50
2022-12-06T03:48:19.445Z,4.30
2022-12-06T03:49:15.966Z,4.22
2022-12-06T03:50:02.975Z,4.60
2022-12-06T03:50:55.463Z,4.43
2022-12-06T03:51:41.536Z,4.43
2022-12-06T03:52:24.648Z,4.15
2022-12-06T03:53:06.432Z,4.30
2022-12-06T03:53:53.899Z,4.00
2022-12-06T03:54:38.855Z,4.63
2022-12-06T03:55:20.558Z,3.95
2022-12-06T03:56:02.204Z,3.88
2022-12-06T03:56:43.829Z,3.60
2022-12-06T03:57:25.666Z,4.60
2022-12-06T03:58:07.987Z,3.90
2022-12-06T03:58:50.002Z,4.30
2022-12-06T03:59:31.681Z,4.50
2022-12-06T04:00:14.335Z,4.40
2022-12-06T04:00:55.937Z,4.38
2022-12-06T04:01:39.150Z,4.47
2022-12-06T04:02:20.828Z,4.20
2022-12-06T04:03:02.545Z,4.57
2022-12-06T04:03:44.663Z,3.83
2022-12-06T04:04:26.427Z,4.28
2022-12-06T04:05:08.453Z,3.97
2022-12-06T04:05:50.106Z,4.22
2022-12-06T04:06:31.840Z,4.13
2022-12-06T04:07:13.609Z,4.35
2022-12-06T04:07:55.378Z,4.18
2022-12-06T04:08:37.847Z,4.43
2022-12-06T04:09:38.345Z,4.50
2022-12-06T04:10:20.108Z,4.22
2022-12-06T04:11:01.773Z,4.05
2022-12-06T04:11:43.489Z,4.50
2022-12-06T04:12:43.640Z,4.53
2022-12-06T04:13:25.948Z,4.32
2022-12-06T04:14:07.635Z,4.35
2022-12-06T04:14:49.295Z,5.75
2022-12-06T04:15:37.095Z,5.82
2022-12-06T04:16:37.560Z,5.47
2022-12-06T04:17:37.557Z,5.00
2022-12-06T04:18:19.251Z,4.72
2022-12-06T04:19:00.859Z,4.80
2022-12-06T04:19:42.434Z,4.93
2022-12-06T04:20:24.948Z,4.18
2022-12-06T04:21:25.190Z,4.80
2022-12-06T04:22:25.250Z,4.68
2022-12-06T04:23:06.957Z,5.10
2022-12-06T04:23:52.262Z,4.80
2022-12-06T04:24:33.936Z,5.32
2022-12-06T04:25:15.569Z,4.85
2022-12-06T04:25:57.247Z,5.40
2022-12-06T04:26:38.927Z,4.75
2022-12-06T04:27:39.501Z,4.88
2022-12-06T04:28:39.702Z,5.43
2022-12-06T04:29:40.005Z,5.30
2022-12-06T04:30:40.195Z,5.30
2022-12-06T04:31:41.406Z,5.57
2022-12-06T04:32:41.555Z,4.85
2022-12-06T04:33:41.777Z,5.20
2022-12-06T04:34:42.459Z,4.45
2022-12-06T04:35:42.582Z,4.80
2022-12-06T04:36:43.014Z,4.72
2022-12-06T04:37:43.153Z,4.85
2022-12-06T04:38:41.332Z,4.25
2022-12-06T04:39:23.854Z,4.40
2022-12-06T04:40:06.211Z,4.43
2022-12-06T04:40:48.222Z,4.70
2022-12-06T04:41:48.193Z,4.45
2022-12-06T04:42:48.388Z,4.25
2022-12-06T04:43:41.929Z,4.20
2022-12-06T04:44:23.614Z,4.88
2022-12-06T04:45:06.353Z,4.30
2022-12-06T04:45:48.035Z,4.30
2022-12-06T04:46:30.057Z,4.25
2022-12-06T04:47:11.904Z,4.68
2022-12-06T04:47:53.512Z,4.55
2022-12-06T04:48:35.141Z,4.65
2022-12-06T04:49:16.965Z,4.90
2022-12-06T04:49:58.865Z,4.25
2022-12-06T04:50:40.714Z,4.22
2022-12-06T04:51:22.694Z,4.60
2022-12-06T04:52:05.695Z,4.43
2022-12-06T04:52:47.320Z,5.00
2022-12-06T04:53:29.014Z,4.45
2022-12-06T04:54:10.724Z,4.57
2022-12-06T04:54:52.347Z,4.15
2022-12-06T04:55:34.019Z,4.50
2022-12-06T04:56:15.796Z,4.47
2022-12-06T04:56:58.841Z,4.78
2022-12-06T04:57:40.538Z,4.85
2022-12-06T04:58:23.251Z,4.60
2022-12-06T04:59:04.952Z,4.60
2022-12-06T04:59:46.711Z,4.40
2022-12-06T05:00:28.411Z,4.07
2022-12-06T05:01:10.282Z,4.07
2022-12-06T05:01:52.546Z,4.47
2022-12-06T05:02:34.182Z,4.70
2022-12-06T05:03:15.823Z,5.10
2022-12-06T05:03:57.563Z,4.30
2022-12-06T05:04:39.901Z,4.05
2022-12-06T05:05:21.545Z,4.95
2022-12-06T05:06:03.916Z,4.40
2022-12-06T05:06:45.786Z,4.80
2022-12-06T05:07:27.419Z,4.70
2022-12-06T05:08:09.902Z,4.63
2022-12-06T05:08:52.007Z,4.80
2022-12-06T05:09:33.760Z,4.90
2022-12-06T05:10:15.523Z,5.28
2022-12-06T05:10:57.192Z,4.78
2022-12-06T05:11:39.045Z,4.75
2022-12-06T05:12:20.710Z,5.32
2022-12-06T05:13:02.431Z,5.00
2022-12-06T05:13:44.111Z,4.85
2022-12-06T05:14:26.202Z,4.75
2022-12-06T05:15:08.465Z,4.40
2022-12-06T05:15:56.499Z,4.60
2022-12-06T05:16:38.224Z,5.00
2022-12-06T05:17:19.880Z,4.50
2022-12-06T05:18:01.562Z,4.50
2022-12-06T05:18:43.222Z,4.47
2022-12-06T05:19:25.506Z,5.57
2022-12-06T05:20:07.586Z,4.50
2022-12-06T05:20:49.762Z,4.95
2022-12-06T05:21:31.603Z,4.53
2022-12-06T05:22:13.308Z,4.82
2022-12-06T05:22:55.088Z,4.40
2022-12-06T05:23:37.146Z,5.00
2022-12-06T05:24:18.779Z,4.30
2022-12-06T05:25:00.477Z,4.38
2022-12-06T05:25:42.287Z,4.70
2022-12-06T05:26:26.926Z,4.93
2022-12-06T05:27:08.591Z,4.75
2022-12-06T05:27:50.244Z,4.25
2022-12-06T05:28:32.974Z,4.80
2022-12-06T05:29:14.604Z,4.38
2022-12-06T05:29:56.216Z,4.43
2022-12-06T05:30:37.847Z,4.25
2022-12-06T05:31:19.727Z,4.55
2022-12-06T05:32:01.625Z,4.05
2022-12-06T05:32:43.380Z,4.57
2022-12-06T05:33:25.989Z,4.72
2022-12-06T05:34:07.660Z,4.30
2022-12-06T05:34:49.301Z,4.53
2022-12-06T05:35:31.027Z,4.38
2022-12-06T05:36:15.617Z,4.63
2022-12-06T05:36:57.252Z,3.97
2022-12-06T05:37:38.912Z,4.70
2022-12-06T05:38:20.887Z,4.50
2022-12-06T05:39:02.599Z,5.35
2022-12-06T05:39:44.244Z,5.70
2022-12-06T05:40:26.023Z,4.63
2022-12-06T05:41:08.155Z,4.80
2022-12-06T05:41:49.815Z,4.03
2022-12-06T05:42:31.587Z,4.65
2022-12-06T05:43:14.371Z,4.50
2022-12-06T05:43:55.972Z,4.25
2022-12-06T05:44:37.633Z,3.92
2022-12-06T05:45:19.331Z,3.90
2022-12-06T05:46:01.155Z,3.97
2022-12-06T05:46:42.856Z,4.32
2022-12-06T05:47:24.508Z,3.95
2022-12-06T05:48:07.114Z,4.28
2022-12-06T05:48:48.765Z,4.55
2022-12-06T05:49:30.448Z,4.25
2022-12-06T05:50:12.305Z,4.60
2022-12-06T05:50:54.041Z,4.68
2022-12-06T05:51:36.025Z,5.30
2022-12-06T05:52:17.665Z,4.75
2022-12-06T05:53:00.432Z,4.63
2022-12-06T05:53:42.472Z,4.72
2022-12-06T05:54:24.186Z,4.80
2022-12-06T05:55:06.110Z,5.00
2022-12-06T05:55:48.340Z,4.78
2022-12-06T05:56:30.040Z,3.92
2022-12-06T05:57:11.628Z,3.95
2022-12-06T05:57:54.193Z,4.60
2022-12-06T05:58:37.203Z,4.50
2022-12-06T05:59:18.837Z,4.00
2022-12-06T06:00:00.823Z,4.22
2022-12-06T06:00:46.407Z,4.40
2022-12-06T06:01:28.114Z,4.57
2022-12-06T06:02:09.972Z,4.80
2022-12-06T06:02:51.889Z,4.68
2022-12-06T06:03:34.353Z,4.47
2022-12-06T06:04:16.098Z,6.78
2022-12-06T06:04:57.713Z,4.50
2022-12-06T06:05:49.565Z,4.55
2022-12-06T06:06:31.183Z,4.68
2022-12-06T06:07:12.897Z,4.60
2022-12-06T06:07:55.188Z,4.70
2022-12-06T06:08:36.907Z,4.07
2022-12-06T06:09:18.701Z,4.72
2022-12-06T06:10:00.824Z,4.60
2022-12-06T06:10:42.702Z,4.38
2022-12-06T06:11:24.367Z,4.47
2022-12-06T06:12:12.071Z,5.20
2022-12-06T06:12:54.228Z,5.60
2022-12-06T06:13:35.842Z,5.55
2022-12-06T06:14:17.605Z,5.05
2022-12-06T06:14:59.316Z,5.05
2022-12-06T06:15:40.983Z,6.25
2022-12-06T06:16:22.715Z,5.20
2022-12-06T06:17:04.456Z,5.40
2022-12-06T06:17:46.257Z,5.15
2022-12-06T06:18:27.913Z,5.13
2022-12-06T06:19:09.583Z,4.50
2022-12-06T06:19:51.833Z,5.22
2022-12-06T06:20:33.785Z,4.95
2022-12-06T06:21:15.436Z,4.53
2022-12-06T06:21:57.068Z,4.63
2022-12-06T06:22:39.640Z,4.75
2022-12-06T06:23:22.127Z,5.30
2022-12-06T06:24:03.971Z,4.90
2022-12-06T06:24:45.968Z,4.88
2022-12-06T06:25:27.643Z,5.03
2022-12-06T06:26:11.734Z,4.45
2022-12-06T06:26:53.393Z,5.20
2022-12-06T06:27:39.643Z,4.78
2022-12-06T06:28:21.565Z,4.45
2022-12-06T06:29:03.220Z,4.18
2022-12-06T06:29:45.596Z,4.50
2022-12-06T06:30:27.408Z,4.20
2022-12-06T06:31:09.170Z,4.40
2022-12-06T06:31:50.993Z,4.47
2022-12-06T06:32:32.745Z,4.30
2022-12-06T06:33:15.324Z,4.78
2022-12-06T06:33:57.162Z,4.53
2022-12-06T06:34:38.843Z,4.63
2022-12-06T06:35:20.498Z,4.50
2022-12-06T06:36:02.112Z,4.93
2022-12-06T06:36:45.903Z,4.45
2022-12-06T06:37:28.028Z,4.32
2022-12-06T06:38:09.623Z,4.80
2022-12-06T06:38:51.595Z,4.97
2022-12-06T06:39:34.160Z,4.88
2022-12-06T06:40:16.448Z,4.97
2022-12-06T06:41:02.131Z,4.45
2022-12-06T06:41:44.819Z,4.68
2022-12-06T06:42:26.719Z,4.18
2022-12-06T06:43:20.624Z,4.07
2022-12-06T06:44:02.476Z,4.13
2022-12-06T06:44:44.862Z,4.78
2022-12-06T06:45:28.906Z,4.55
2022-12-06T06:46:10.955Z,4.95
2022-12-06T06:46:52.608Z,5.13
2022-12-06T06:47:34.323Z,4.38
2022-12-06T06:48:15.937Z,5.22
2022-12-06T06:48:57.609Z,4.90
2022-12-06T06:49:39.313Z,5.20
2022-12-06T06:50:21.029Z,5.90
2022-12-06T06:51:12.215Z,4.82
2022-12-06T06:51:53.871Z,4.78
2022-12-06T06:52:35.607Z,5.45
2022-12-06T06:53:17.530Z,5.13
2022-12-06T06:53:59.694Z,5.70
2022-12-06T06:54:41.374Z,5.15
2022-12-06T06:55:23.026Z,5.47
2022-12-06T06:56:05.722Z,5.68
2022-12-06T06:56:48.184Z,5.03
2022-12-06T06:57:29.955Z,5.57
2022-12-06T06:58:13.187Z,5.15
2022-12-06T06:58:54.991Z,5.50
2022-12-06T06:59:36.638Z,5.20
2022-12-06T07:00:18.664Z,5.53
2022-12-06T07:01:02.376Z,6.50
2022-12-06T07:01:44.234Z,5.93
2022-12-06T07:02:26.046Z,6.00
2022-12-06T07:03:14.384Z,5.78
2022-12-06T07:03:56.234Z,5.28
2022-12-06T07:04:37.904Z,4.72
2022-12-06T07:05:19.516Z,6.10
2022-12-06T07:06:04.750Z,6.15
2022-12-06T07:06:46.500Z,5.60
2022-12-06T07:07:28.102Z,5.28
2022-12-06T07:08:10.812Z,5.20
2022-12-06T07:08:52.466Z,5.28
2022-12-06T07:09:34.460Z,5.60
2022-12-06T07:10:16.287Z,5.30
2022-12-06T07:10:58.474Z,5.35
2022-12-06T07:11:40.322Z,5.97
2022-12-06T07:12:22.113Z,6.03
2022-12-06T07:13:03.930Z,5.60
2022-12-06T07:13:51.269Z,5.50
2022-12-06T07:14:34.692Z,5.20
2022-12-06T07:15:16.548Z,5.25
2022-12-06T07:16:01.250Z,5.50
2022-12-06T07:16:42.958Z,5.85
2022-12-06T07:17:25.393Z,7.00
2022-12-06T07:18:07.079Z,7.00
2022-12-06T07:18:49.026Z,7.47
2022-12-06T07:19:31.773Z,6.80
2022-12-06T07:20:13.669Z,5.70
2022-12-06T07:21:07.053Z,5.90
2022-12-06T07:21:49.044Z,6.10
2022-12-06T07:22:31.065Z,5.60
2022-12-06T07:23:13.287Z,5.28
2022-12-06T07:23:55.008Z,5.22
2022-12-06T07:24:41.628Z,5.70
2022-12-06T07:25:24.597Z,5.50
2022-12-06T07:26:14.737Z,5.05
2022-12-06T07:26:57.389Z,4.90
2022-12-06T07:27:39.233Z,5.00
2022-12-06T07:28:20.861Z,5.18
2022-12-06T07:29:02.561Z,5.03
2022-12-06T07:29:44.300Z,4.88
2022-12-06T07:30:27.798Z,5.20
2022-12-06T07:31:22.965Z,4.90
2022-12-06T07:32:05.022Z,5.00
2022-12-06T07:32:46.716Z,4.97
2022-12-06T07:33:28.474Z,5.13
2022-12-06T07:34:10.465Z,5.13
2022-12-06T07:34:52.257Z,4.70
2022-12-06T07:36:03.755Z,4.75
2022-12-06T07:36:35.552Z,4.90
2022-12-06T07:37:19.076Z,5.28
2022-12-06T07:38:01.432Z,5.30
2022-12-06T07:38:49.073Z,5.20
2022-12-06T07:39:30.751Z,4.80
2022-12-06T07:40:15.119Z,5.47
2022-12-06T07:41:24.026Z,4.60
2022-12-06T07:42:24.596Z,5.28
2022-12-06T07:43:28.473Z,5.13
2022-12-06T07:44:30.676Z,4.20
2022-12-06T07:45:15.156Z,5.10
2022-12-06T07:45:56.997Z,4.93
2022-12-06T07:46:38.781Z,4.57
2022-12-06T07:47:20.579Z,4.25
2022-12-06T07:48:02.653Z,4.40
2022-12-06T07:48:44.398Z,4.78
2022-12-06T07:49:26.025Z,4.63
2022-12-06T07:50:17.321Z,4.15
2022-12-06T07:51:04.719Z,4.30
2022-12-06T07:51:47.103Z,4.82
2022-12-06T07:52:36.618Z,4.75
2022-12-06T07:53:18.763Z,5.00
2022-12-06T07:54:00.927Z,4.95
2022-12-06T07:54:42.681Z,5.60
2022-12-06T07:55:24.438Z,5.05
2022-12-06T07:56:08.091Z,4.05
2022-12-06T07:56:49.901Z,4.22
2022-12-06T07:57:31.650Z,4.28
2022-12-06T07:58:13.366Z,4.38
2022-12-06T07:58:55.082Z,4.45
2022-12-06T07:59:36.867Z,4.38
2022-12-06T08:00:18.896Z,4.15
2022-12-06T08:01:03.631Z,4.05
2022-12-06T08:01:45.546Z,3.78
2022-12-06T08:02:28.385Z,4.10
2022-12-06T08:03:10.725Z,4.20
2022-12-06T08:03:53.644Z,7.22
2022-12-06T08:04:36.801Z,5.13
2022-12-06T08:05:18.498Z,4.60
2022-12-06T08:06:00.208Z,4.68
2022-12-06T08:06:41.893Z,4.20
2022-12-06T08:07:23.945Z,4.75
2022-12-06T08:08:05.818Z,4.03
2022-12-06T08:08:47.633Z,4.00
2022-12-06T08:09:29.511Z,3.80
2022-12-06T08:10:11.376Z,4.30
2022-12-06T08:10:53.086Z,4.13
2022-12-06T08:11:35.827Z,4.20
2022-12-06T08:12:17.584Z,4.45
2022-12-06T08:12:59.274Z,4.13
2022-12-06T08:13:41.068Z,4.40
2022-12-06T08:14:23.276Z,4.85
2022-12-06T08:15:05.868Z,4.22
2022-12-06T08:15:47.664Z,4.75
2022-12-06T08:16:29.417Z,5.20
2022-12-06T08:17:11.331Z,4.40
2022-12-06T08:17:53.008Z,3.95
2022-12-06T08:18:34.969Z,4.15
2022-12-06T08:19:16.604Z,4.60
2022-12-06T08:19:58.637Z,3.88
2022-12-06T08:20:40.600Z,4.22
2022-12-06T08:21:22.568Z,3.80
2022-12-06T08:22:05.048Z,4.25
2022-12-06T08:22:46.797Z,4.30
2022-12-06T08:23:33.878Z,3.90
2022-12-06T08:24:16.392Z,3.42
2022-12-06T08:24:58.150Z,4.47
2022-12-06T08:25:39.993Z,5.00
2022-12-06T08:26:22.351Z,5.03
2022-12-06T08:27:04.145Z,4.45
2022-12-06T08:27:45.924Z,4.60
2022-12-06T08:28:29.454Z,4.43
2022-12-06T08:29:11.349Z,4.13
2022-12-06T08:29:52.999Z,5.20
2022-12-06T08:30:34.801Z,4.68
2022-12-06T08:31:21.294Z,4.57
2022-12-06T08:32:03.451Z,4.65
2022-12-06T08:32:45.538Z,4.45
2022-12-06T08:33:28.195Z,4.10
2022-12-06T08:34:09.855Z,4.07
2022-12-06T08:34:51.584Z,4.10
2022-12-06T08:35:37.422Z,4.20
2022-12-06T08:36:21.540Z,4.72
2022-12-06T08:37:03.846Z,4.15
2022-12-06T08:37:45.630Z,3.95
2022-12-06T08:38:28.316Z,4.60
2022-12-06T08:39:11.654Z,4.38
2022-12-06T08:39:54.025Z,4.32
2022-12-06T08:40:35.788Z,4.53
2022-12-06T08:41:36.928Z,5.55
2022-12-06T08:42:24.886Z,5.60
2022-12-06T08:43:07.510Z,6.13
2022-12-06T08:43:49.152Z,4.43
2022-12-06T08:44:32.389Z,4.18
2022-12-06T08:45:14.064Z,4.78
2022-12-06T08:45:55.766Z,4.45
2022-12-06T08:46:37.780Z,4.45
2022-12-06T08:47:19.942Z,4.47
2022-12-06T08:48:02.429Z,4.57
2022-12-06T08:48:44.120Z,4.80
2022-12-06T08:49:26.788Z,4.00
2022-12-06T08:50:08.699Z,4.57
2022-12-06T08:50:50.404Z,3.95
2022-12-06T08:51:36.039Z,4.00
2022-12-06T08:52:18.210Z,3.90
2022-12-06T08:52:59.940Z,3.92
2022-12-06T08:53:41.812Z,4.20
2022-12-06T08:54:24.968Z,4.95
2022-12-06T08:55:07.137Z,4.20
2022-12-06T08:56:01.971Z,4.45
2022-12-06T08:56:44.681Z,4.03
2022-12-06T08:57:26.418Z,4.78
2022-12-06T08:58:08.602Z,4.35
2022-12-06T08:58:52.005Z,4.60
2022-12-06T08:59:33.798Z,4.93
2022-12-06T09:00:16.711Z,4.47
2022-12-06T09:00:58.611Z,4.20
2022-12-06T09:01:41.017Z,4.40
2022-12-06T09:02:22.833Z,4.25
2022-12-06T09:03:04.547Z,4.47
2022-12-06T09:03:46.673Z,4.47
2022-12-06T09:04:29.039Z,4.15
2022-12-06T09:05:10.940Z,4.20
2022-12-06T09:05:52.574Z,3.92
2022-12-06T09:06:36.467Z,4.03
2022-12-06T09:07:20.020Z,4.28
2022-12-06T09:08:01.877Z,3.97
2022-12-06T09:08:44.524Z,4.93
2022-12-06T09:09:26.255Z,4.45
2022-12-06T09:10:08.383Z,4.47
2022-12-06T09:10:50.063Z,4.90
2022-12-06T09:11:31.737Z,4.20
2022-12-06T09:12:13.437Z,3.97
2022-12-06T09:12:55.086Z,3.72
2022-12-06T09:13:37.927Z,3.83
2022-12-06T09:14:22.287Z,4.10
2022-12-06T09:15:04.748Z,4.10
2022-12-06T09:15:46.709Z,4.32
2022-12-06T09:16:29.756Z,4.35
2022-12-06T09:17:11.749Z,4.32
2022-12-06T09:17:53.376Z,4.72
2022-12-06T09:18:35.092Z,4.10
2022-12-06T09:19:16.925Z,4.28
2022-12-06T09:20:05.311Z,4.30
2022-12-06T09:20:47.898Z,4.43
2022-12-06T09:21:30.685Z,4.38
2022-12-06T09:22:12.521Z,4.45
2022-12-06T09:22:54.176Z,4.45
2022-12-06T09:23:37.031Z,3.80
2022-12-06T09:24:19.286Z,4.18
2022-12-06T09:25:00.965Z,3.92
2022-12-06T09:25:43.099Z,4.35
2022-12-06T09:26:25.876Z,3.97
2022-12-06T09:27:07.559Z,3.83
2022-12-06T09:27:49.265Z,3.75
2022-12-06T09:28:33.752Z,4.05
2022-12-06T09:29:17.123Z,4.65
2022-12-06T09:29:59.236Z,4.03
2022-12-06T09:30:41.300Z,4.10
2022-12-06T09:31:23.776Z,4.43
2022-12-06T09:32:05.530Z,4.10
2022-12-06T09:32:48.446Z,4.20
2022-12-06T09:33:30.239Z,4.25
2022-12-06T09:34:13.182Z,4.40
2022-12-06T09:34:54.895Z,4.18
2022-12-06T09:35:36.993Z,4.90
2022-12-06T09:36:21.551Z,4.40
2022-12-06T09:37:08.273Z,4.40
2022-12-06T09:37:50.320Z,4.50
2022-12-06T09:38:36.251Z,3.92
2022-12-06T09:39:33.663Z,5.93
2022-12-06T09:40:43.129Z,5.50
2022-12-06T09:41:43.512Z,4.38
2022-12-06T09:42:43.401Z,4.47
2022-12-06T09:43:54.571Z,4.32
2022-12-06T09:44:44.944Z,4.32
2022-12-06T09:45:46.979Z,4.53
2022-12-06T09:46:50.246Z,4.45
2022-12-06T09:47:34.780Z,4.25
2022-12-06T09:48:28.247Z,3.72
2022-12-06T09:49:39.105Z,3.78
2022-12-06T09:50:32.541Z,4.30
2022-12-06T09:51:46.258Z,4.28
2022-12-06T09:53:05.192Z,4.38
2022-12-06T09:53:59.337Z,6.25
2022-12-06T09:55:27.000Z,8.80
2022-12-06T09:56:33.817Z,6.75
2022-12-06T09:57:26.827Z,4.85
2022-12-06T09:58:20.291Z,3.47
2022-12-06T09:59:14.574Z,3.65
2022-12-06T10:00:10.626Z,3.40
2022-12-06T10:01:10.039Z,3.70
2022-12-06T10:01:57.366Z,3.97